North Valley Stream, New York
Current Conditions -  °F | °C
As of 1:51 AM on Tuesday 21 Oct 2014 (Local Time) from KJFK Reporting Station
Broken Clouds Broken Clouds  
Wind Chill: 56°   Ceiling: 21000
Heat Index: 56°   Visibility: 10mi
Dew Point: 45°   Wind: 7mph
Humidity: 67%   Direction: 230°SW
Pressure: 29.95"   Gusts: NA
Location:  40.6745°N, 73.7041°W
Report Text: KJFK 210551Z 23006KT 10SM FEW140 BKN210 13/07 A2995 RMK AO2 SLP143 T01330072 10156 20133 58014
Loading
Personal Weather Stations






























Interactive Weather Map
Tropical Storm Tracking
New forecast layout! Learn more

10-Day Weather Forecast

Advertisements
Track Severe Weather on mobile